Time;durP1;ratioP1;P1;durP2;ratioP2;P2;SDS_P1;SDS_P2;PMS_P1;PMS_P2;Temp;Humidity;BMP_temperature;BMP_pressure;BME280_temperature;BME280_humidity;BME280_pressure;Samples;Min_cycle;Max_cycle;Signal;HPM_P1;HPM_P2
2022/12/21 00:00:51;;;;;;;27.60;19.10;;;9.80;90.10;;;;;;5095804;28;20069;-80
2022/12/21 00:03:17;;;;;;;25.42;17.77;;;9.70;90.30;;;;;;5095304;28;20047;-78
2022/12/21 00:05:42;;;;;;;29.00;19.95;;;9.70;90.20;;;;;;5095646;28;20112;-80
2022/12/21 00:08:08;;;;;;;23.80;17.33;;;9.60;90.20;;;;;;5114172;28;20042;-80
2022/12/21 00:10:34;;;;;;;25.60;18.42;;;9.60;90.30;;;;;;5095590;28;20031;-79
2022/12/21 00:13:00;;;;;;;27.55;17.98;;;9.60;90.30;;;;;;5113943;28;20070;-78
2022/12/21 00:15:25;;;;;;;24.40;17.80;;;9.50;90.30;;;;;;5114036;28;20495;-80
2022/12/21 00:17:51;;;;;;;25.60;18.38;;;9.50;90.40;;;;;;5113480;28;20084;-79
2022/12/21 00:20:17;;;;;;;26.27;18.67;;;9.50;90.40;;;;;;5113784;28;20476;-79
2022/12/21 00:22:43;;;;;;;24.70;17.83;;;9.50;90.60;;;;;;5095188;28;20043;-78
2022/12/21 00:25:09;;;;;;;25.27;18.00;;;9.50;90.40;;;;;;5113135;28;20031;-80
2022/12/21 00:27:34;;;;;;;26.08;18.27;;;9.40;90.20;;;;;;5095157;28;20035;-80
2022/12/21 00:30:00;;;;;;;23.35;18.10;;;9.40;90.50;;;;;;5113233;28;20043;-80
2022/12/21 00:32:26;;;;;;;30.58;18.45;;;9.40;90.40;;;;;;5114442;28;20061;-80
2022/12/21 00:34:52;;;;;;;26.05;17.90;;;9.40;90.40;;;;;;5113835;28;20059;-79
2022/12/21 00:37:18;;;;;;;28.13;17.80;;;9.40;90.50;;;;;;5095722;28;20071;-80
2022/12/21 00:39:43;;;;;;;25.05;18.05;;;9.40;90.60;;;;;;5114508;28;20032;-80
2022/12/21 00:42:09;;;;;;;24.50;18.02;;;9.40;90.50;;;;;;5114934;28;20078;-80
2022/12/21 00:44:35;;;;;;;23.48;16.70;;;9.40;90.40;;;;;;5097283;28;20150;-79
2022/12/21 00:47:01;;;;;;;23.42;17.88;;;9.40;90.60;;;;;;5113885;28;20043;-79
2022/12/21 00:49:26;;;;;;;22.92;17.45;;;9.40;90.40;;;;;;5113685;28;20556;-80
2022/12/21 00:51:52;;;;;;;22.65;17.30;;;9.40;90.40;;;;;;5095378;28;20118;-80
2022/12/21 00:54:17;;;;;;;23.00;17.90;;;9.40;90.40;;;;;;5094990;28;20027;-80
2022/12/21 00:56:43;;;;;;;25.38;17.85;;;9.40;90.40;;;;;;5098000;28;20379;-79
2022/12/21 00:59:09;;;;;;;25.20;17.42;;;9.30;90.40;;;;;;5117211;28;20035;-79
2022/12/21 01:01:35;;;;;;;23.48;17.50;;;9.40;90.50;;;;;;5117173;28;20471;-81
2022/12/21 01:04:02;;;;;;;27.73;17.40;;;9.40;90.30;;;;;;5099554;28;20138;-80
2022/12/21 01:06:31;;;;;;;25.88;17.70;;;9.40;90.40;;;;;;5098837;28;20081;-79
2022/12/21 01:08:57;;;;;;;23.05;17.33;;;9.40;90.70;;;;;;5100261;28;20102;-79
2022/12/21 01:11:25;;;;;;;22.73;17.30;;;9.30;90.20;;;;;;5100174;28;20554;-79
2022/12/21 01:13:52;;;;;;;21.08;16.08;;;9.30;90.30;;;;;;5117523;28;20031;-79
2022/12/21 01:16:21;;;;;;;22.13;16.10;;;9.20;90.30;;;;;;5117695;28;20031;-79
2022/12/21 01:18:47;;;;;;;23.75;16.65;;;9.30;90.50;;;;;;5098785;28;20035;-78
2022/12/21 01:21:20;;;;;;;22.10;15.45;;;9.30;90.40;;;;;;5116493;28;20123;-80
2022/12/21 01:23:47;;;;;;;21.48;16.25;;;9.30;90.40;;;;;;5098748;28;20104;-79
2022/12/21 01:26:14;;;;;;;23.48;15.38;;;9.30;90.40;;;;;;5116741;28;20084;-79
2022/12/21 01:28:40;;;;;;;22.50;15.57;;;9.30;90.30;;;;;;5098397;28;20043;-78
2022/12/21 01:31:06;;;;;;;22.55;16.20;;;9.20;90.30;;;;;;5099653;28;20110;-80
2022/12/21 01:33:32;;;;;;;21.50;15.30;;;9.20;90.20;;;;;;5117756;28;20059;-79
2022/12/21 01:36:04;;;;;;;20.67;15.05;;;9.20;90.40;;;;;;5099241;28;20081;-79
2022/12/21 01:38:29;;;;;;;22.60;14.73;;;9.20;90.30;;;;;;5099171;28;20501;-79
2022/12/21 01:40:55;;;;;;;19.08;13.60;;;9.20;90.20;;;;;;5098889;28;20118;-80
2022/12/21 01:43:41;;;;;;;20.13;14.50;;;9.20;90.10;;;;;;5098540;28;20384;-80
2022/12/21 01:46:15;;;;;;;23.65;14.63;;;9.20;90.20;;;;;;5098472;28;20031;-78
2022/12/21 01:48:42;;;;;;;;;;;9.20;90.30;;;;;;5116477;28;20062;-80
2022/12/21 01:51:10;;;;;;;18.70;14.50;;;9.20;90.20;;;;;;5116538;28;19903;-79
2022/12/21 01:53:42;;;;;;;21.48;14.15;;;9.20;90.10;;;;;;5098250;28;20405;-78
2022/12/21 01:56:10;;;;;;;17.70;13.48;;;9.20;90.20;;;;;;5098030;28;20032;-79
2022/12/21 01:58:39;;;;;;;18.40;13.93;;;9.10;90.20;;;;;;5116657;28;20038;-80
2022/12/21 02:01:06;;;;;;;18.73;14.10;;;9.10;90.20;;;;;;5098223;28;20031;-81
2022/12/21 02:03:41;;;;;;;19.88;13.60;;;9.10;90.30;;;;;;5098150;28;20112;-79
2022/12/21 02:06:10;;;;;;;18.65;12.95;;;9.10;90.30;;;;;;5116874;28;20478;-80
2022/12/21 02:08:37;;;;;;;17.58;13.88;;;9.10;90.30;;;;;;5116133;28;20036;-79
2022/12/21 02:11:03;;;;;;;16.50;12.85;;;9.00;90.20;;;;;;5116910;28;20027;-78
2022/12/21 02:13:29;;;;;;;19.02;13.43;;;9.00;90.30;;;;;;5099382;28;20036;-79
2022/12/21 02:16:09;;;;;;;21.30;14.02;;;9.00;90.20;;;;;;5117123;28;20034;-79
2022/12/21 02:19:09;;;;;;;20.67;13.60;;;8.90;90.00;;;;;;5097494;28;20050;-80
2022/12/21 02:22:00;;;;;;;23.65;13.95;;;8.90;90.00;;;;;;5116037;28;20100;-80
2022/12/21 02:24:50;;;;;;;18.95;13.32;;;8.90;90.10;;;;;;5116558;28;20044;-79
2022/12/21 02:27:27;;;;;;;20.63;14.15;;;8.90;90.00;;;;;;5115239;28;20571;-79
2022/12/21 02:30:14;;;;;;;18.02;13.73;;;8.90;90.00;;;;;;5118403;28;20055;-78
2022/12/21 02:33:09;;;;;;;17.70;13.23;;;8.90;90.00;;;;;;5097774;28;20076;-79
2022/12/21 02:35:59;;;;;;;18.27;13.05;;;8.90;90.10;;;;;;5098110;28;20039;-79
2022/12/21 02:38:34;;;;;;;18.77;12.23;;;8.90;90.00;;;;;;5115914;28;20028;-78
2022/12/21 02:41:07;;;;;;;17.10;12.45;;;8.90;90.40;;;;;;5097542;28;20064;-79
2022/12/21 02:44:13;;;;;;;17.80;12.07;;;8.80;89.90;;;;;;5115607;28;20039;-79
2022/12/21 02:46:48;;;;;;;16.83;12.00;;;8.80;90.00;;;;;;5032904;28;20037;-78
2022/12/21 02:49:26;;;;;;;29.15;13.02;;;8.70;90.30;;;;;;5086102;28;20039;-79
2022/12/21 02:52:04;;;;;;;17.10;12.23;;;8.70;90.20;;;;;;5098155;28;20031;-80
2022/12/21 02:54:30;;;;;;;18.40;12.52;;;8.70;90.00;;;;;;5096735;28;20043;-79
2022/12/21 02:56:55;;;;;;;17.42;12.63;;;8.60;90.20;;;;;;5096735;28;20028;-81
2022/12/21 02:59:27;;;;;;;18.70;13.05;;;8.60;90.30;;;;;;5096669;28;20481;-80
2022/12/21 03:02:24;;;;;;;18.13;12.43;;;8.60;90.40;;;;;;5114726;28;20458;-80
2022/12/21 03:05:12;;;;;;;23.55;14.07;;;8.70;90.30;;;;;;5096913;28;20047;-80
2022/12/21 03:08:10;;;;;;;23.73;13.90;;;8.70;90.00;;;;;;5096436;28;20031;-79
2022/12/21 03:10:58;;;;;;;20.85;13.77;;;8.70;90.00;;;;;;5085861;28;20126;-79
2022/12/21 03:13:32;;;;;;;23.92;15.07;;;8.70;90.00;;;;;;5097088;28;20035;-78
2022/12/21 03:16:10;;;;;;;19.90;15.18;;;8.70;90.40;;;;;;5115418;28;20059;-79
2022/12/21 03:18:52;;;;;;;24.33;15.57;;;8.70;90.00;;;;;;5095600;28;20028;-78
2022/12/21 03:21:37;;;;;;;21.95;16.70;;;8.70;90.00;;;;;;5097807;28;20048;-78
2022/12/21 03:24:26;;;;;;;19.85;14.60;;;8.70;90.40;;;;;;5098143;28;20039;-79
2022/12/21 03:27:20;;;;;;;23.48;17.20;;;8.70;90.00;;;;;;5115749;28;20073;-80
2022/12/21 03:30:02;;;;;;;21.00;15.90;;;8.70;90.00;;;;;;5096698;28;20035;-79
2022/12/21 03:32:47;;;;;;;23.02;16.25;;;8.60;90.50;;;;;;5114837;28;20092;-78
2022/12/21 03:35:45;;;;;;;21.45;15.60;;;8.60;90.50;;;;;;5096512;28;20450;-80
2022/12/21 03:38:24;;;;;;;21.83;15.70;;;8.60;90.20;;;;;;5108887;28;20128;-79
2022/12/21 03:40:54;;;;;;;23.30;15.88;;;8.60;90.10;;;;;;5095936;28;20038;-77
2022/12/21 03:43:23;;;;;;;24.27;16.30;;;8.60;90.60;;;;;;5095651;28;20038;-78
2022/12/21 03:45:55;;;;;;;21.25;15.85;;;8.60;90.60;;;;;;5114136;28;20570;-78
2022/12/21 03:48:30;;;;;;;18.80;15.63;;;8.60;90.70;;;;;;5114246;28;20076;-77
2022/12/21 03:51:03;;;;;;;19.20;14.95;;;8.60;90.70;;;;;;5096054;28;20146;-80
2022/12/21 03:53:51;;;;;;;20.13;14.38;;;8.60;90.70;;;;;;5095547;28;20034;-81
2022/12/21 03:56:29;;;;;;;21.98;15.52;;;8.70;90.70;;;;;;5095563;28;20126;-80
2022/12/21 03:58:55;;;;;;;19.52;15.15;;;8.70;90.20;;;;;;5113863;28;20059;-79
2022/12/21 04:01:38;;;;;;;22.15;14.95;;;8.70;90.60;;;;;;5113538;28;20063;-79
2022/12/21 04:04:26;;;;;;;22.83;15.45;;;8.70;90.40;;;;;;5114118;28;20048;-78
2022/12/21 04:06:54;;;;;;;19.15;14.18;;;8.80;90.60;;;;;;5113774;28;20028;-78
2022/12/21 04:09:20;;;;;;;17.80;13.98;;;8.80;90.50;;;;;;5113976;28;20039;-79
2022/12/21 04:14:30;;;;;;;19.20;13.57;;;8.90;90.80;;;;;;5114192;28;20046;-78
2022/12/21 04:16:56;;;;;;;18.67;13.80;;;8.90;90.40;;;;;;5114429;28;20506;-78
2022/12/21 04:22:06;;;;;;;19.60;14.10;;;9.00;90.70;;;;;;5113345;28;20513;-78
2022/12/21 04:29:59;;;;;;;;;;;8.90;90.20;;;;;;5113777;28;20037;-78
2022/12/21 04:32:25;;;;;;;16.45;13.20;;;8.80;90.20;;;;;;5113234;28;19995;-78
2022/12/21 04:34:51;;;;;;;17.83;14.35;;;8.80;90.30;;;;;;5113128;28;20035;-78
2022/12/21 04:37:32;;;;;;;19.95;12.63;;;8.90;90.30;;;;;;5113137;28;20066;-78
2022/12/21 04:39:59;;;;;;;19.45;12.77;;;8.90;90.00;;;;;;5094987;28;20191;-80
2022/12/21 04:42:25;;;;;;;17.75;12.90;;;8.90;90.20;;;;;;5094835;28;20544;-78
2022/12/21 04:44:51;;;;;;;15.85;13.00;;;8.90;90.20;;;;;;5113233;28;20046;-79
2022/12/21 04:47:17;;;;;;;16.63;12.77;;;8.90;90.10;;;;;;5094853;28;20419;-78
2022/12/21 04:49:43;;;;;;;17.73;12.30;;;8.90;90.30;;;;;;5113181;28;20475;-79
2022/12/21 04:52:09;;;;;;;17.30;12.50;;;8.90;90.00;;;;;;5113201;28;20034;-79
2022/12/21 04:54:35;;;;;;;17.95;12.98;;;8.80;90.10;;;;;;5112969;28;20039;-79
2022/12/21 04:57:00;;;;;;;15.57;12.70;;;8.70;90.10;;;;;;5113283;28;20383;-79
2022/12/21 04:59:26;;;;;;;19.58;12.93;;;8.60;90.20;;;;;;5113207;28;20115;-78
2022/12/21 05:01:52;;;;;;;15.93;12.07;;;8.50;90.20;;;;;;5113213;28;20088;-79
2022/12/21 05:04:18;;;;;;;16.77;11.85;;;8.50;90.30;;;;;;5095014;28;20039;-79
2022/12/21 05:06:43;;;;;;;18.80;12.48;;;8.40;90.30;;;;;;5094896;28;20032;-78
2022/12/21 05:09:13;;;;;;;16.52;12.13;;;8.40;90.40;;;;;;5096146;28;20035;-80
2022/12/21 05:11:38;;;;;;;16.63;11.15;;;8.30;90.40;;;;;;5115611;28;20031;-78
2022/12/21 05:14:04;;;;;;;15.00;11.77;;;8.30;90.40;;;;;;5095758;28;20032;-78
2022/12/21 05:16:31;;;;;;;20.38;12.25;;;8.20;90.50;;;;;;5113443;28;20395;-79
2022/12/21 05:18:56;;;;;;;17.65;11.98;;;8.20;90.50;;;;;;5095327;28;20100;-79
2022/12/21 05:21:22;;;;;;;15.35;11.57;;;8.20;90.50;;;;;;5094687;28;20479;-79
2022/12/21 05:23:49;;;;;;;16.90;10.90;;;8.30;90.60;;;;;;5094863;28;20039;-79
2022/12/21 05:26:15;;;;;;;17.17;11.25;;;8.30;90.60;;;;;;5094201;28;20035;-78
2022/12/21 05:28:42;;;;;;;17.55;11.15;;;8.30;90.50;;;;;;5094834;28;20035;-79
2022/12/21 05:31:08;;;;;;;17.90;10.27;;;8.20;90.40;;;;;;5094668;28;20039;-80
2022/12/21 05:33:33;;;;;;;15.82;10.80;;;8.30;90.60;;;;;;5094353;28;20509;-77
2022/12/21 05:36:07;;;;;;;17.08;10.75;;;8.30;90.60;;;;;;5112810;28;20032;-79
2022/12/21 05:38:33;;;;;;;18.00;10.30;;;8.30;90.60;;;;;;5112601;28;20032;-80
2022/12/21 05:40:58;;;;;;;13.73;10.35;;;8.40;90.60;;;;;;5094581;28;20039;-80
2022/12/21 05:43:24;;;;;;;16.25;11.20;;;8.40;90.50;;;;;;5115670;28;20114;-79
2022/12/21 05:45:50;;;;;;;11.93;9.05;;;8.40;90.40;;;;;;5116685;28;20055;-79
2022/12/21 05:48:16;;;;;;;16.75;9.55;;;8.40;90.40;;;;;;5097798;28;20607;-78
2022/12/21 05:50:42;;;;;;;13.45;10.45;;;8.40;90.50;;;;;;5115050;28;20042;-80
2022/12/21 05:53:08;;;;;;;16.55;11.20;;;8.40;90.30;;;;;;5098061;28;20102;-78
2022/12/21 05:55:35;;;;;;;15.43;9.60;;;8.40;90.40;;;;;;5116200;28;20034;-79
2022/12/21 05:58:01;;;;;;;13.50;10.23;;;8.40;90.40;;;;;;5097974;28;20032;-78
2022/12/21 06:00:27;;;;;;;14.75;10.27;;;8.40;90.40;;;;;;5116270;28;20137;-79
2022/12/21 06:02:53;;;;;;;16.77;11.25;;;8.40;90.50;;;;;;5118824;28;20028;-80
2022/12/21 06:05:19;;;;;;;13.85;10.43;;;8.40;90.50;;;;;;5121017;28;20035;-81
2022/12/21 06:07:45;;;;;;;14.30;11.05;;;8.40;90.50;;;;;;5118728;28;20034;-80
2022/12/21 06:10:10;;;;;;;14.13;10.45;;;8.40;90.50;;;;;;5116667;28;20054;-80
2022/12/21 06:12:36;;;;;;;16.02;10.65;;;8.40;90.40;;;;;;5116223;28;20067;-80
2022/12/21 06:15:02;;;;;;;13.13;10.38;;;8.40;90.40;;;;;;5116053;28;20111;-78
2022/12/21 06:17:29;;;;;;;14.18;10.77;;;8.40;90.40;;;;;;5098136;28;20059;-79
2022/12/21 06:19:55;;;;;;;15.75;10.77;;;8.30;90.60;;;;;;5097603;28;20035;-80
2022/12/21 06:22:22;;;;;;;18.55;10.85;;;8.30;90.50;;;;;;5115777;28;20032;-80
2022/12/21 06:24:48;;;;;;;15.32;11.32;;;8.30;90.70;;;;;;5115616;28;20518;-78
2022/12/21 06:27:13;;;;;;;15.15;11.63;;;8.30;90.60;;;;;;5097558;28;20039;-79
2022/12/21 06:29:39;;;;;;;15.57;11.18;;;8.30;91.00;;;;;;5097902;28;20050;-80
2022/12/21 06:32:05;;;;;;;15.95;11.07;;;8.30;90.50;;;;;;5097291;28;20026;-80
2022/12/21 06:34:30;;;;;;;14.60;11.38;;;8.30;90.60;;;;;;5115762;28;20476;-80
2022/12/21 06:36:56;;;;;;;18.40;11.20;;;8.30;90.70;;;;;;5115244;28;20039;-78
2022/12/21 06:39:22;;;;;;;16.23;11.60;;;8.30;90.60;;;;;;5115294;28;20040;-79
2022/12/21 06:41:48;;;;;;;17.55;11.10;;;8.30;90.60;;;;;;5096913;28;20036;-80
2022/12/21 06:44:14;;;;;;;16.27;11.30;;;8.30;90.60;;;;;;5115131;28;20035;-80
2022/12/21 06:46:39;;;;;;;17.17;11.95;;;8.30;90.70;;;;;;5096965;28;20063;-79
2022/12/21 06:49:05;;;;;;;15.57;11.73;;;8.20;90.50;;;;;;5115183;28;20032;-79
2022/12/21 06:51:31;;;;;;;15.55;11.35;;;8.20;90.60;;;;;;5096662;28;20047;-79
2022/12/21 06:53:57;;;;;;;15.90;11.45;;;8.20;90.60;;;;;;5096557;28;20048;-79
2022/12/21 06:56:29;;;;;;;19.55;12.30;;;8.20;90.70;;;;;;5117517;28;20091;-79
2022/12/21 06:58:55;;;;;;;15.38;12.02;;;8.30;90.80;;;;;;5119674;28;20423;-79
2022/12/21 07:01:22;;;;;;;19.98;11.50;;;8.40;90.80;;;;;;5115388;28;20035;-80
2022/12/21 07:03:48;;;;;;;16.33;11.18;;;8.40;90.70;;;;;;5115099;28;20106;-79
2022/12/21 07:06:15;;;;;;;17.15;11.00;;;8.50;90.60;;;;;;5096318;28;20039;-80
2022/12/21 07:08:42;;;;;;;15.13;10.25;;;8.50;90.70;;;;;;5096661;28;20502;-78
2022/12/21 07:11:14;;;;;;;13.77;10.90;;;8.50;90.60;;;;;;5114629;28;20054;-80
2022/12/21 07:13:42;;;;;;;16.60;11.07;;;8.50;90.60;;;;;;5096760;28;20074;-81
2022/12/21 07:16:08;;;;;;;15.52;10.23;;;8.50;90.50;;;;;;5115110;28;20513;-78
2022/12/21 07:18:35;;;;;;;15.95;11.10;;;8.60;90.60;;;;;;5115171;28;20035;-77
2022/12/21 07:21:02;;;;;;;14.77;9.77;;;8.70;90.50;;;;;;5114599;28;20027;-81
2022/12/21 07:23:29;;;;;;;13.60;10.60;;;8.80;90.30;;;;;;5114400;28;20043;-77
2022/12/21 07:25:56;;;;;;;18.50;10.77;;;8.80;90.20;;;;;;5114355;28;20044;-80
2022/12/21 07:28:22;;;;;;;12.15;9.70;;;8.90;90.40;;;;;;5096147;28;20054;-78
2022/12/21 07:30:48;;;;;;;15.65;9.80;;;9.00;90.60;;;;;;5096026;28;20039;-78
2022/12/21 07:33:23;;;;;;;15.02;10.60;;;9.10;90.20;;;;;;5096034;28;20059;-76
2022/12/21 07:35:48;;;;;;;18.85;11.73;;;9.20;90.20;;;;;;5095830;28;20077;-77
2022/12/21 07:38:14;;;;;;;15.93;11.10;;;9.20;89.90;;;;;;5095300;28;20032;-72
2022/12/21 07:40:40;;;;;;;17.23;11.57;;;9.20;90.00;;;;;;5095125;28;20023;-72
2022/12/21 07:43:09;;;;;;;17.83;11.90;;;9.20;89.90;;;;;;5095183;28;20036;-71
2022/12/21 07:45:37;;;;;;;16.83;10.65;;;9.20;90.10;;;;;;5113816;28;20031;-71
2022/12/21 07:48:03;;;;;;;16.27;11.15;;;9.20;89.80;;;;;;5114611;28;20027;-73
2022/12/21 07:50:29;;;;;;;16.48;11.02;;;9.20;90.00;;;;;;5113946;28;20036;-73
2022/12/21 07:52:57;;;;;;;20.70;11.13;;;9.20;89.90;;;;;;5095473;28;20445;-71
2022/12/21 07:55:26;;;;;;;21.13;11.68;;;9.30;89.70;;;;;;5095640;28;20071;-73
2022/12/21 07:57:52;;;;;;;17.05;11.10;;;9.30;90.00;;;;;;5094853;28;20074;-73
2022/12/21 08:00:22;;;;;;;13.38;10.05;;;9.30;89.50;;;;;;5095020;28;20057;-73
2022/12/21 08:02:48;;;;;;;17.02;10.80;;;9.30;89.30;;;;;;5094987;28;20043;-73
2022/12/21 08:05:13;;;;;;;14.82;10.23;;;9.40;89.40;;;;;;5112555;28;20036;-72
2022/12/21 08:07:39;;;;;;;15.85;10.25;;;9.50;89.60;;;;;;5113213;28;20030;-72
2022/12/21 08:10:06;;;;;;;17.92;10.38;;;9.50;89.00;;;;;;5094752;28;20352;-72
2022/12/21 08:12:31;;;;;;;19.17;10.77;;;9.60;89.00;;;;;;5094619;28;20040;-71
2022/12/21 08:14:58;;;;;;;16.83;10.63;;;9.60;88.90;;;;;;5112812;28;20035;-72
2022/12/21 08:17:23;;;;;;;15.27;10.63;;;9.60;88.80;;;;;;5094563;28;20375;-71
2022/12/21 08:19:49;;;;;;;15.52;10.70;;;9.70;88.70;;;;;;5112729;28;20028;-71
2022/12/21 08:22:15;;;;;;;16.65;10.95;;;9.70;88.70;;;;;;5094193;28;20032;-72
2022/12/21 08:24:40;;;;;;;16.05;10.50;;;9.80;88.50;;;;;;5112873;28;20092;-73
2022/12/21 08:27:06;;;;;;;16.33;9.75;;;9.90;88.70;;;;;;5112831;28;20051;-77
2022/12/21 08:29:32;;;;;;;14.05;9.70;;;10.00;87.50;;;;;;5094430;28;20416;-76
2022/12/21 08:31:57;;;;;;;15.38;9.20;;;10.10;87.40;;;;;;5094535;28;20062;-77
2022/12/21 08:34:23;;;;;;;15.40;9.35;;;10.20;87.00;;;;;;5113172;28;20028;-78
2022/12/21 08:36:49;;;;;;;16.40;8.98;;;10.20;86.70;;;;;;5094659;28;20039;-77
2022/12/21 08:39:15;;;;;;;17.17;9.23;;;10.30;86.60;;;;;;5094289;28;20070;-76
2022/12/21 08:41:40;;;;;;;14.23;9.15;;;10.40;86.70;;;;;;5094750;28;20505;-76
2022/12/21 08:44:06;;;;;;;15.48;9.50;;;10.50;86.40;;;;;;5095203;28;20491;-75
2022/12/21 08:46:32;;;;;;;17.38;9.55;;;10.60;86.30;;;;;;5114126;28;20055;-76
2022/12/21 08:48:58;;;;;;;17.20;9.55;;;10.80;86.00;;;;;;5095509;28;20057;-78
2022/12/21 08:51:24;;;;;;;18.10;9.70;;;10.80;85.60;;;;;;5095228;28;20028;-76
2022/12/21 08:53:50;;;;;;;11.77;8.95;;;10.90;85.20;;;;;;5095871;28;20386;-77
2022/12/21 08:56:16;;;;;;;13.05;9.25;;;10.90;84.80;;;;;;5097230;28;20031;-76
2022/12/21 08:58:41;;;;;;;19.63;9.13;;;11.00;85.00;;;;;;5113482;28;20141;-76
2022/12/21 09:01:07;;;;;;;21.25;9.50;;;11.00;84.50;;;;;;5112205;28;20359;-77
2022/12/21 09:03:33;;;;;;;14.55;9.52;;;11.10;84.70;;;;;;5112446;28;20122;-78
2022/12/21 09:06:02;;;;;;;16.85;9.95;;;11.10;84.40;;;;;;5094098;28;20034;-76
2022/12/21 09:08:28;;;;;;;15.13;9.77;;;11.10;84.70;;;;;;5094181;28;20032;-75
2022/12/21 09:11:02;;;;;;;18.95;9.45;;;11.10;84.40;;;;;;5112442;28;20491;-75
2022/12/21 09:13:28;;;;;;;14.73;8.18;;;11.10;84.80;;;;;;5112172;28;20071;-75
2022/12/21 09:15:53;;;;;;;16.48;8.95;;;11.20;84.60;;;;;;5112450;28;20059;-76
2022/12/21 09:18:19;;;;;;;13.45;8.63;;;11.30;84.30;;;;;;5096542;28;20039;-75
2022/12/21 09:20:45;;;;;;;15.63;8.90;;;11.30;84.60;;;;;;5116393;28;20539;-77
2022/12/21 09:23:11;;;;;;;23.10;9.23;;;11.30;84.20;;;;;;5116340;28;20044;-76
2022/12/21 09:25:37;;;;;;;15.70;8.82;;;11.40;84.10;;;;;;5097540;28;20075;-77
2022/12/21 09:28:03;;;;;;;15.40;8.98;;;11.40;83.80;;;;;;5097940;28;20063;-77
2022/12/21 09:30:29;;;;;;;21.27;8.80;;;11.50;83.60;;;;;;5116030;28;20381;-76
2022/12/21 09:32:55;;;;;;;18.77;9.38;;;11.50;84.20;;;;;;5116075;28;20043;-75
2022/12/21 09:35:21;;;;;;;18.33;9.45;;;11.60;83.50;;;;;;5097633;28;20387;-76
2022/12/21 09:37:47;;;;;;;12.88;9.23;;;11.60;83.70;;;;;;5099943;28;20027;-76
2022/12/21 09:40:15;;;;;;;19.25;9.32;;;11.70;83.30;;;;;;5116449;28;20032;-75
2022/12/21 09:42:43;;;;;;;16.48;9.95;;;11.70;83.30;;;;;;5097713;28;20557;-78
2022/12/21 09:45:34;;;;;;;15.70;8.65;;;11.70;83.10;;;;;;5116284;28;20139;-77
2022/12/21 09:48:06;;;;;;;16.20;8.60;;;11.70;83.10;;;;;;5116066;28;20039;-76
2022/12/21 09:50:48;;;;;;;19.52;9.23;;;11.70;83.40;;;;;;5097343;28;20043;-77
2022/12/21 09:53:19;;;;;;;21.33;10.50;;;11.80;83.00;;;;;;5115509;28;20028;-77
2022/12/21 09:55:53;;;;;;;27.13;10.15;;;11.80;83.50;;;;;;5097016;28;20072;-77
2022/12/21 09:58:25;;;;;;;22.63;10.05;;;11.90;83.60;;;;;;5097137;28;20073;-76
2022/12/21 10:01:16;;;;;;;22.98;10.48;;;11.90;83.10;;;;;;5115298;28;20050;-76
2022/12/21 10:04:08;;;;;;;17.05;9.43;;;11.90;82.80;;;;;;5115415;28;20047;-76
2022/12/21 10:07:00;;;;;;;22.55;9.68;;;11.90;82.90;;;;;;5115601;28;20339;-77
2022/12/21 10:09:40;;;;;;;17.65;9.90;;;12.00;82.90;;;;;;5095254;28;20035;-75
2022/12/21 10:12:34;;;;;;;16.17;9.43;;;12.00;83.00;;;;;;5115590;28;20031;-77
2022/12/21 10:15:08;;;;;;;;;;;12.10;82.60;;;;;;5116271;28;20325;-77
2022/12/21 10:17:49;;;;;;;21.58;9.65;;;12.10;83.60;;;;;;5096894;28;19904;-77
2022/12/21 10:20:21;;;;;;;18.25;9.77;;;12.20;82.60;;;;;;5114863;28;20039;-78
2022/12/21 10:22:50;;;;;;;17.95;9.75;;;12.20;82.60;;;;;;5115027;28;20077;-78
2022/12/21 10:25:22;;;;;;;20.85;10.68;;;12.20;82.50;;;;;;5096626;28;20069;-77
2022/12/21 10:27:59;;;;;;;18.52;9.45;;;12.20;82.70;;;;;;5114726;28;20395;-78
2022/12/21 10:30:25;;;;;;;24.38;10.27;;;12.20;82.60;;;;;;5114959;28;20040;-74
2022/12/21 10:32:51;;;;;;;19.65;10.95;;;12.20;82.60;;;;;;5115602;28;20046;-78
2022/12/21 10:35:18;;;;;;;20.38;13.35;;;12.20;82.20;;;;;;5097804;28;20036;-78
2022/12/21 10:37:53;;;;;;;22.70;13.45;;;12.20;82.40;;;;;;5116402;28;20032;-77
2022/12/21 10:40:22;;;;;;;25.65;16.35;;;12.20;82.90;;;;;;5097904;28;20035;-76
2022/12/21 10:42:50;;;;;;;28.40;17.45;;;12.20;83.10;;;;;;5096938;28;20497;-77
2022/12/21 10:45:19;;;;;;;31.48;17.88;;;12.20;82.90;;;;;;5096525;28;20042;-77
2022/12/21 10:47:45;;;;;;;24.35;14.95;;;12.20;83.20;;;;;;5096742;28;20146;-76
2022/12/21 10:50:31;;;;;;;29.65;13.98;;;12.20;83.20;;;;;;5114874;28;20035;-75
2022/12/21 10:52:59;;;;;;;24.40;13.68;;;12.20;82.70;;;;;;5096398;28;20051;-78
2022/12/21 10:55:34;;;;;;;26.55;14.98;;;12.20;83.30;;;;;;5114680;28;20023;-77
2022/12/21 10:58:21;;;;;;;23.77;12.88;;;12.20;82.70;;;;;;5096432;28;20046;-76
2022/12/21 11:01:01;;;;;;;24.58;11.60;;;12.20;83.30;;;;;;5114459;28;20088;-77
2022/12/21 11:03:36;;;;;;;35.10;26.15;;;12.20;82.20;;;;;;5096716;28;20394;-76
2022/12/21 11:06:15;;;;;;;36.17;26.55;;;12.30;82.60;;;;;;5114799;28;20034;-77
2022/12/21 11:08:51;;;;;;;29.45;19.67;;;12.30;83.30;;;;;;5114755;28;20032;-77
2022/12/21 11:11:30;;;;;;;28.42;17.35;;;12.40;82.40;;;;;;5095902;28;20110;-76
2022/12/21 11:13:59;;;;;;;25.92;17.42;;;12.40;82.30;;;;;;5095959;28;20126;-76
2022/12/21 11:16:29;;;;;;;25.77;17.00;;;12.50;82.70;;;;;;5096145;28;20031;-76
2022/12/21 11:18:59;;;;;;;25.15;15.68;;;12.50;81.80;;;;;;5095756;28;20054;-76
2022/12/21 11:21:33;;;;;;;24.38;13.93;;;12.50;82.00;;;;;;5095723;28;20108;-77
2022/12/21 11:24:22;;;;;;;27.27;12.63;;;12.50;81.80;;;;;;5114214;28;20172;-77
2022/12/21 11:26:54;;;;;;;27.25;14.43;;;12.60;82.10;;;;;;5114366;28;20051;-76
2022/12/21 11:29:31;;;;;;;23.50;14.43;;;12.60;81.80;;;;;;5114744;28;20042;-77
2022/12/21 11:32:04;;;;;;;33.45;20.23;;;12.60;82.00;;;;;;5095633;28;20118;-78
2022/12/21 11:34:34;;;;;;;35.80;21.85;;;12.70;82.00;;;;;;5097257;28;20578;-75
2022/12/21 11:37:26;;;;;;;34.80;23.05;;;12.70;81.90;;;;;;5116031;28;20110;-77
2022/12/21 11:39:54;;;;;;;33.58;23.13;;;12.70;82.10;;;;;;5075797;28;20043;-76
2022/12/21 11:42:23;;;;;;;37.40;26.65;;;12.70;81.90;;;;;;5097584;28;20054;-76
2022/12/21 11:45:23;;;;;;;32.42;22.60;;;12.80;82.10;;;;;;5113899;28;20043;-76
2022/12/21 11:48:19;;;;;;;32.70;21.30;;;12.80;82.20;;;;;;5071903;28;20450;-77
2022/12/21 11:51:04;;;;;;;32.30;20.77;;;12.80;82.00;;;;;;5113745;28;20122;-77
2022/12/21 11:54:09;;;;;;;30.67;18.75;;;12.80;82.10;;;;;;5095554;28;20035;-77
2022/12/21 11:57:07;;;;;;;32.05;19.08;;;12.90;82.00;;;;;;5114052;28;20050;-77
2022/12/21 12:00:00;;;;;;;33.22;20.38;;;13.00;81.90;;;;;;5095177;28;20047;-75
2022/12/21 12:02:25;;;;;;;27.45;18.05;;;13.10;82.00;;;;;;5113846;28;20036;-76
2022/12/21 12:05:06;;;;;;;29.48;18.45;;;13.10;81.80;;;;;;5094961;28;20054;-77
2022/12/21 12:07:34;;;;;;;26.38;15.88;;;13.10;82.00;;;;;;5095088;28;20092;-76
2022/12/21 12:10:09;;;;;;;23.88;14.90;;;13.20;81.80;;;;;;5095338;28;20024;-76
2022/12/21 12:12:57;;;;;;;25.85;16.42;;;13.20;81.80;;;;;;5095092;28;20570;-75
2022/12/21 12:15:43;;;;;;;22.10;14.93;;;13.20;81.60;;;;;;5094699;28;20035;-78
2022/12/21 12:18:44;;;;;;;26.02;14.25;;;13.30;81.80;;;;;;5094807;28;20034;-78
2022/12/21 12:21:28;;;;;;;23.15;14.60;;;13.40;82.00;;;;;;5080976;28;20471;-76
2022/12/21 12:24:31;;;;;;;29.33;15.15;;;13.40;81.60;;;;;;5113187;28;20055;-77
2022/12/21 12:27:13;;;;;;;20.73;14.60;;;13.40;81.70;;;;;;5094540;28;20047;-76
2022/12/21 12:29:45;;;;;;;26.80;14.40;;;13.30;82.00;;;;;;5112924;28;20035;-75
2022/12/21 12:32:14;;;;;;;19.77;14.90;;;13.30;82.10;;;;;;5112737;28;20040;-77
2022/12/21 12:34:52;;;;;;;22.25;14.10;;;13.30;82.10;;;;;;5112759;28;20031;-78
2022/12/21 12:37:39;;;;;;;23.15;13.77;;;13.20;82.20;;;;;;5112970;28;20035;-76
2022/12/21 12:40:19;;;;;;;20.60;14.55;;;13.20;82.40;;;;;;5112805;28;20027;-78
2022/12/21 12:43:00;;;;;;;21.92;13.73;;;13.20;82.50;;;;;;5112810;28;20317;-76
2022/12/21 12:45:38;;;;;;;19.35;14.30;;;13.10;82.80;;;;;;5094026;28;20198;-76
2022/12/21 12:48:23;;;;;;;23.75;14.52;;;13.10;82.70;;;;;;5094087;28;20120;-77
2022/12/21 12:51:03;;;;;;;25.02;14.30;;;13.10;83.10;;;;;;5094583;28;20035;-76
2022/12/21 12:54:08;;;;;;;21.75;13.52;;;13.00;83.20;;;;;;5094226;28;20035;-78
2022/12/21 12:56:40;;;;;;;21.95;13.15;;;13.00;83.40;;;;;;5094166;28;20100;-78
2022/12/21 12:59:25;;;;;;;25.77;13.68;;;13.00;83.30;;;;;;5112525;28;20085;-77
2022/12/21 13:02:04;;;;;;;16.80;12.85;;;13.00;83.40;;;;;;5112178;28;20027;-76
2022/12/21 13:04:51;;;;;;;20.98;13.48;;;13.00;83.00;;;;;;5093685;28;20523;-77
2022/12/21 13:07:35;;;;;;;21.35;13.75;;;13.00;83.10;;;;;;5094265;28;20028;-76
2022/12/21 13:10:04;;;;;;;22.35;13.23;;;13.10;83.00;;;;;;5112270;28;20063;-76